Delawanna, New Jersey
Current Conditions -  °F | °C
As of 10:51 PM on Saturday 24 Jan 2015 (Local Time) from KTEB Reporting Station
Broken Clouds Broken Clouds  
Wind Chill: 30°   Ceiling: 3600
Heat Index: 36°   Visibility: 10mi
Dew Point: 23°   Wind: 7mph
Humidity: 59%   Direction: 280°W
Pressure: 29.47"   Gusts: NA
Location:  40.8318°N, 74.1362°W
Report Text: KTEB 250351Z 28006KT 10SM BKN036 BKN080 02/M05 A2947 RMK AO2 SLP981 T00221050 $
Loading
Personal Weather Stations






























Interactive Weather Map New forecast layout! Learn more

10-Day Weather Forecast

Advertisements
Track Severe Weather on mobile